Time;durP1;ratioP1;P1;durP2;ratioP2;P2;SDS_P1;SDS_P2;PMS_P1;PMS_P2;Temp;Humidity;BMP_temperature;BMP_pressure;BME280_temperature;BME280_humidity;BME280_pressure;Samples;Min_cycle;Max_cycle;Signal;HPM_P1;HPM_P2
2021/08/18 00:00:41;;;;;;;;;;;;;;;;;;4961381;28;19957;-76
2021/08/18 00:03:06;;;;;;;;;;;;;;;;;;4969250;28;19913;-76
2021/08/18 00:05:31;;;;;;;;;;;;;;;;;;4944103;28;19914;-75
2021/08/18 00:07:57;;;;;;;;;;;;;;;;;;4947248;28;20013;-77
2021/08/18 00:10:22;;;;;;;;;;;;;;;;;;4952996;28;20001;-75
2021/08/18 00:12:47;;;;;;;;;;;;;;;;;;4962865;28;19914;-75
2021/08/18 00:15:12;;;;;;;;;;;;;;;;;;4949438;28;19996;-75
2021/08/18 00:17:38;;;;;;;;;;;;;;;;;;4962640;28;20371;-76
2021/08/18 00:20:03;;;;;;;;;;;;;;;;;;4962777;28;20019;-75
2021/08/18 00:22:28;;;;;;;;;;;;;;;;;;4936626;28;19972;-75
2021/08/18 00:24:53;;;;;;;;;;;;;;;;;;4964577;28;19913;-77
2021/08/18 00:27:21;;;;;;;;;;;;;;;;;;4951630;28;20354;-75
2021/08/18 00:29:46;;;;;;;;;;;;;;;;;;4946396;28;19960;-75
2021/08/18 00:32:14;;;;;;;;;;;;;;;;;;4937069;28;20024;-75
2021/08/18 00:34:39;;;;;;;;;;;;;;;;;;4951568;28;20366;-74
2021/08/18 00:37:04;;;;;;;;;;;;;;;;;;4948861;28;20340;-75
2021/08/18 00:39:29;;;;;;;;;;;;;;;;;;4971634;28;20347;-77
2021/08/18 00:41:55;;;;;;;;;;;;;;;;;;4963683;28;20449;-75
2021/08/18 00:44:20;;;;;;;;;;;;;;;;;;4963388;28;20024;-76
2021/08/18 00:46:45;;;;;;;;;;;;;;;;;;4951463;28;19922;-74
2021/08/18 00:49:10;;;;;;;;;;;;;;;;;;4964610;28;19952;-75
2021/08/18 00:51:35;;;;;;;;;;;;;;;;;;4972964;28;20354;-76
2021/08/18 00:54:01;;;;;;;;;;;;;;;;;;4946811;28;19914;-75
2021/08/18 00:56:26;;;;;;;;;;;;;;;;;;4962975;28;20405;-76
2021/08/18 00:58:51;;;;;;;;;;;;;;;;;;4969685;28;20448;-75
2021/08/18 01:01:16;;;;;;;;;;;;;;;;;;4964349;28;19918;-75
2021/08/18 01:03:42;;;;;;;;;;;;;;;;;;4967474;28;20438;-75
2021/08/18 01:06:08;;;;;;;;;;;;;;;;;;4963647;28;19922;-76
2021/08/18 01:08:35;;;;;;;;;;;;;;;;;;4945293;28;19913;-75
2021/08/18 01:11:03;;;;;;;;;;;;;;;;;;4975915;28;20103;-76
2021/08/18 01:13:28;;;;;;;;;;;;;;;;;;4944393;28;19914;-77
2021/08/18 01:15:53;;;;;;;;;;;;;;;;;;4966266;28;20359;-75
2021/08/18 01:18:19;;;;;;;;;;;;;;;;;;4950646;28;19916;-76
2021/08/18 01:20:44;;;;;;;;;;;;;;;;;;4961142;28;19918;-76
2021/08/18 01:23:09;;;;;;;;;;;;;;;;;;4971272;28;20026;-75
2021/08/18 01:25:34;;;;;;;;;;;;;;;;;;4960376;28;19953;-77
2021/08/18 01:28:00;;;;;;;;;;;;;;;;;;4955951;28;19914;-75
2021/08/18 01:30:25;;;;;;;;;;;;;;;;;;4945506;28;19914;-76
2021/08/18 01:32:50;;;;;;;;;;;;;;;;;;4966654;28;20094;-76
2021/08/18 01:35:15;;;;;;;;;;;;;;;;;;4972121;28;19921;-76
2021/08/18 01:37:41;;;;;;;;;;;;;;;;;;4969076;28;20372;-76
2021/08/18 01:40:06;;;;;;;;;;;;;;;;;;4954424;28;20004;-76
2021/08/18 01:42:31;;;;;;;;;;;;;;;;;;4930208;28;19969;-76
2021/08/18 01:44:56;;;;;;;;;;;;;;;;;;4934398;28;20434;-75
2021/08/18 01:47:21;;;;;;;;;;;;;;;;;;4974502;28;20387;-76
2021/08/18 01:49:47;;;;;;;;;;;;;;;;;;4965545;28;19920;-75
2021/08/18 01:52:12;;;;;;;;;;;;;;;;;;4952160;28;20234;-76
2021/08/18 01:54:37;;;;;;;;;;;;;;;;;;4964302;28;19914;-75
2021/08/18 01:57:02;;;;;;;;;;;;;;;;;;4946582;28;19920;-77
2021/08/18 01:59:28;;;;;;;;;;;;;;;;;;4952260;28;19914;-76
2021/08/18 02:01:53;;;;;;;;;;;;;;;;;;4964718;28;19914;-76
2021/08/18 02:04:19;;;;;;;;;;;;;;;;;;4951965;28;19914;-75
2021/08/18 02:06:44;;;;;;;;;;;;;;;;;;4959989;28;20215;-75
2021/08/18 02:09:09;;;;;;;;;;;;;;;;;;4963236;28;19914;-75
2021/08/18 02:11:34;;;;;;;;;;;;;;;;;;4952636;28;20157;-75
2021/08/18 02:14:00;;;;;;;;;;;;;;;;;;4945762;28;20032;-74
2021/08/18 02:16:25;;;;;;;;;;;;;;;;;;4950606;28;20405;-75
2021/08/18 02:18:50;;;;;;;;;;;;;;;;;;4961702;28;20296;-75
2021/08/18 02:21:15;;;;;;;;;;;;;;;;;;4966686;28;19918;-75
2021/08/18 02:23:41;;;;;;;;;;;;;;;;;;4971442;28;19914;-74
2021/08/18 02:26:06;;;;;;;;;;;;;;;;;;4949423;28;20039;-76
2021/08/18 02:28:31;;;;;;;;;;;;;;;;;;4973608;28;19957;-75
2021/08/18 02:30:56;;;;;;;;;;;;;;;;;;4963301;28;20264;-76
2021/08/18 02:33:25;;;;;;;;;;;;;;;;;;4965478;28;20316;-75
2021/08/18 02:35:50;;;;;;;;;;;;;;;;;;4973017;28;20318;-76
2021/08/18 02:38:15;;;;;;;;;;;;;;;;;;4950705;28;20381;-76
2021/08/18 02:40:40;;;;;;;;;;;;;;;;;;4974758;28;19914;-75
2021/08/18 02:43:05;;;;;;;;;;;;;;;;;;4965673;28;19914;-74
2021/08/18 02:45:31;;;;;;;;;;;;;;;;;;4934738;28;20012;-74
2021/08/18 02:47:56;;;;;;;;;;;;;;;;;;4974839;28;19934;-75
2021/08/18 02:50:21;;;;;;;;;;;;;;;;;;4950241;28;19914;-75
2021/08/18 02:52:46;;;;;;;;;;;;;;;;;;4976569;28;20282;-75
2021/08/18 02:55:12;;;;;;;;;;;;;;;;;;4966187;28;20271;-78
2021/08/18 02:57:37;;;;;;;;;;;;;;;;;;4967007;28;19940;-77
2021/08/18 03:00:02;;;;;;;;;;;;;;;;;;4953834;28;20297;-75
2021/08/18 03:02:27;;;;;;;;;;;;;;;;;;4970620;28;19910;-76
2021/08/18 03:04:53;;;;;;;;;;;;;;;;;;4972004;28;19920;-75
2021/08/18 03:07:18;;;;;;;;;;;;;;;;;;4964863;28;20435;-75
2021/08/18 03:09:43;;;;;;;;;;;;;;;;;;4969101;28;19917;-75
2021/08/18 03:12:08;;;;;;;;;;;;;;;;;;4972460;28;19913;-75
2021/08/18 03:14:33;;;;;;;;;;;;;;;;;;4972152;28;20017;-75
2021/08/18 03:16:59;;;;;;;;;;;;;;;;;;4958209;28;19946;-75
2021/08/18 03:19:24;;;;;;;;;;;;;;;;;;4950766;28;19922;-75
2021/08/18 03:21:49;;;;;;;;;;;;;;;;;;4945840;28;20004;-75
2021/08/18 03:24:14;;;;;;;;;;;;;;;;;;4955915;28;19921;-75
2021/08/18 03:26:39;;;;;;;;;;;;;;;;;;4948531;28;19998;-74
2021/08/18 03:29:07;;;;;;;;;;;;;;;;;;4955324;28;19914;-75
2021/08/18 03:31:32;;;;;;;;;;;;;;;;;;4965398;28;20450;-74
2021/08/18 03:33:58;;;;;;;;;;;;;;;;;;4964365;28;19914;-75
2021/08/18 03:36:23;;;;;;;;;;;;;;;;;;4973561;28;19910;-74
2021/08/18 03:38:48;;;;;;;;;;;;;;;;;;4965792;28;19917;-74
2021/08/18 03:41:13;;;;;;;;;;;;;;;;;;4974000;28;19921;-74
2021/08/18 03:43:41;;;;;;;;;;;;;;;;;;4950701;28;20293;-74
2021/08/18 03:46:06;;;;;;;;;;;;;;;;;;4968412;28;19922;-74
2021/08/18 03:48:32;;;;;;;;;;;;;;;;;;4955505;28;20474;-75
2021/08/18 03:50:57;;;;;;;;;;;;;;;;;;4950540;28;20362;-75
2021/08/18 03:53:22;;;;;;;;;;;;;;;;;;4941500;28;19921;-76
2021/08/18 03:55:47;;;;;;;;;;;;;;;;;;4948617;28;19964;-73
2021/08/18 03:58:15;;;;;;;;;;;;;;;;;;4950553;28;19972;-74
2021/08/18 04:00:40;;;;;;;;;;;;;;;;;;4952998;28;20363;-75
2021/08/18 04:03:05;;;;;;;;;;;;;;;;;;4948582;28;20382;-74
2021/08/18 04:05:31;;;;;;;;;;;;;;;;;;4954699;28;20375;-76
2021/08/18 04:07:56;;;;;;;;;;;;;;;;;;4957119;28;19969;-75
2021/08/18 04:10:21;;;;;;;;;;;;;;;;;;4947036;28;19972;-75
2021/08/18 04:12:47;;;;;;;;;;;;;;;;;;4953259;28;20012;-74
2021/08/18 04:15:12;;;;;;;;;;;;;;;;;;4964237;28;19945;-74
2021/08/18 04:17:37;;;;;;;;;;;;;;;;;;4968714;28;20270;-76
2021/08/18 04:20:02;;;;;;;;;;;;;;;;;;4950623;28;20020;-75
2021/08/18 04:22:28;;;;;;;;;;;;;;;;;;4965445;28;20243;-75
2021/08/18 04:24:53;;;;;;;;;;;;;;;;;;4972116;28;20355;-74
2021/08/18 04:27:18;;;;;;;;;;;;;;;;;;4964869;28;19948;-74
2021/08/18 04:29:44;;;;;;;;;;;;;;;;;;4967525;28;19914;-77
2021/08/18 04:32:09;;;;;;;;;;;;;;;;;;4937337;28;19914;-75
2021/08/18 04:34:34;;;;;;;;;;;;;;;;;;4962278;28;19949;-75
2021/08/18 04:36:59;;;;;;;;;;;;;;;;;;4957994;28;19921;-74
2021/08/18 04:39:24;;;;;;;;;;;;;;;;;;4938407;28;19918;-75
2021/08/18 04:41:50;;;;;;;;;;;;;;;;;;4966710;28;20605;-77
2021/08/18 04:44:15;;;;;;;;;;;;;;;;;;4956099;28;20005;-76
2021/08/18 04:46:40;;;;;;;;;;;;;;;;;;4964774;28;19957;-74
2021/08/18 04:49:05;;;;;;;;;;;;;;;;;;4970125;28;19914;-75
2021/08/18 04:51:31;;;;;;;;;;;;;;;;;;4968503;28;19976;-75
2021/08/18 04:53:56;;;;;;;;;;;;;;;;;;4953094;28;20358;-76
2021/08/18 04:56:21;;;;;;;;;;;;;;;;;;4967665;28;19914;-75
2021/08/18 04:58:46;;;;;;;;;;;;;;;;;;4935505;28;19925;-75
2021/08/18 05:01:12;;;;;;;;;;;;;;;;;;4971108;28;19914;-75
2021/08/18 05:03:37;;;;;;;;;;;;;;;;;;4962403;28;20337;-75
2021/08/18 05:06:02;;;;;;;;;;;;;;;;;;4964935;28;20375;-76
2021/08/18 05:08:28;;;;;;;;;;;;;;;;;;4951067;28;20842;-74
2021/08/18 05:10:53;;;;;;;;;;;;;;;;;;4945897;28;19914;-74
2021/08/18 05:13:18;;;;;;;;;;;;;;;;;;4953680;28;19914;-73
2021/08/18 05:15:43;;;;;;;;;;;;;;;;;;4964092;28;19921;-73
2021/08/18 05:18:09;;;;;;;;;;;;;;;;;;4940493;28;19991;-76
2021/08/18 05:20:34;;;;;;;;;;;;;;;;;;4950468;28;19918;-72
2021/08/18 05:22:59;;;;;;;;;;;;;;;;;;4961934;28;19913;-72
2021/08/18 05:25:26;;;;;;;;;;;;;;;;;;4967227;28;19909;-73
2021/08/18 05:27:52;;;;;;;;;;;;;;;;;;4963776;28;20222;-74
2021/08/18 05:30:17;;;;;;;;;;;;;;;;;;4963860;28;19918;-72
2021/08/18 05:32:42;;;;;;;;;;;;;;;;;;4952370;28;19921;-73
2021/08/18 05:35:07;;;;;;;;;;;;;;;;;;4949740;28;19964;-73
2021/08/18 05:37:33;;;;;;;;;;;;;;;;;;4969284;28;19918;-73
2021/08/18 05:39:58;;;;;;;;;;;;;;;;;;4943585;28;19914;-72
2021/08/18 05:42:23;;;;;;;;;;;;;;;;;;4971132;28;20411;-72
2021/08/18 05:44:48;;;;;;;;;;;;;;;;;;4967688;28;19918;-73
2021/08/18 05:47:14;;;;;;;;;;;;;;;;;;4968782;28;19928;-72
2021/08/18 05:49:39;;;;;;;;;;;;;;;;;;4967895;28;19914;-73
2021/08/18 05:52:04;;;;;;;;;;;;;;;;;;4967755;28;19997;-73
2021/08/18 05:54:29;;;;;;;;;;;;;;;;;;4955964;28;19913;-74
2021/08/18 05:56:54;;;;;;;;;;;;;;;;;;4974057;28;19914;-73
2021/08/18 05:59:20;;;;;;;;;;;;;;;;;;4972298;28;19913;-72
2021/08/18 06:01:45;;;;;;;;;;;;;;;;;;4955514;28;19914;-73
2021/08/18 06:04:10;;;;;;;;;;;;;;;;;;4955168;28;19979;-73
2021/08/18 06:06:35;;;;;;;;;;;;;;;;;;4974206;28;19922;-73
2021/08/18 06:09:01;;;;;;;;;;;;;;;;;;4973700;28;20332;-76
2021/08/18 06:11:26;;;;;;;;;;;;;;;;;;4972431;28;19925;-73
2021/08/18 06:13:51;;;;;;;;;;;;;;;;;;4972021;28;19917;-74
2021/08/18 06:16:17;;;;;;;;;;;;;;;;;;4956371;28;19984;-75
2021/08/18 06:18:42;;;;;;;;;;;;;;;;;;4956013;28;19910;-75
2021/08/18 06:21:07;;;;;;;;;;;;;;;;;;4956865;28;19965;-74
2021/08/18 06:23:33;;;;;;;;;;;;;;;;;;4973226;28;20347;-73
2021/08/18 06:25:59;;;;;;;;;;;;;;;;;;4951780;28;19918;-75
2021/08/18 06:28:25;;;;;;;;;;;;;;;;;;4963045;28;19913;-75
2021/08/18 06:30:50;;;;;;;;;;;;;;;;;;4953025;28;20307;-72
2021/08/18 06:33:15;;;;;;;;;;;;;;;;;;4966279;28;19925;-72
2021/08/18 06:35:41;;;;;;;;;;;;;;;;;;4971379;28;20427;-72
2021/08/18 06:38:06;;;;;;;;;;;;;;;;;;4954030;28;19926;-74
2021/08/18 06:40:33;;;;;;;;;;;;;;;;;;4969105;28;19921;-73
2021/08/18 06:42:58;;;;;;;;;;;;;;;;;;4966140;28;20169;-72
2021/08/18 06:45:24;;;;;;;;;;;;;;;;;;4953062;28;19914;-70
2021/08/18 06:47:49;;;;;;;;;;;;;;;;;;4949547;28;20021;-71
2021/08/18 06:50:14;;;;;;;;;;;;;;;;;;4968840;28;20001;-71
2021/08/18 06:52:39;;;;;;;;;;;;;;;;;;4955981;28;20307;-70
2021/08/18 06:55:05;;;;;;;;;;;;;;;;;;4954675;28;19918;-72
2021/08/18 06:57:30;;;;;;;;;;;;;;;;;;4968738;28;20173;-73
2021/08/18 06:59:55;;;;;;;;;;;;;;;;;;4956965;28;19920;-73
2021/08/18 07:02:20;;;;;;;;;;;;;;;;;;4971524;28;20074;-72
2021/08/18 07:04:46;;;;;;;;;;;;;;;;;;4975269;28;19913;-70
2021/08/18 07:07:11;;;;;;;;;;;;;;;;;;4970733;28;20426;-72
2021/08/18 07:09:36;;;;;;;;;;;;;;;;;;4949549;28;20231;-74
2021/08/18 07:12:01;;;;;;;;;;;;;;;;;;4970358;28;19924;-72
2021/08/18 07:14:27;;;;;;;;;;;;;;;;;;4953018;28;19914;-73
2021/08/18 07:16:52;;;;;;;;;;;;;;;;;;4970522;28;19914;-72
2021/08/18 07:19:17;;;;;;;;;;;;;;;;;;4953462;28;19925;-72
2021/08/18 07:21:42;;;;;;;;;;;;;;;;;;4953848;28;20326;-73
2021/08/18 07:24:08;;;;;;;;;;;;;;;;;;4972697;28;19918;-73
2021/08/18 07:26:33;;;;;;;;;;;;;;;;;;4970854;28;19929;-73
2021/08/18 07:28:58;;;;;;;;;;;;;;;;;;4954764;28;20227;-73
2021/08/18 07:31:23;;;;;;;;;;;;;;;;;;4969547;28;19913;-72
2021/08/18 07:33:48;;;;;;;;;;;;;;;;;;4971567;28;19914;-73
2021/08/18 07:36:14;;;;;;;;;;;;;;;;;;4966449;28;19921;-74
2021/08/18 07:38:39;;;;;;;;;;;;;;;;;;4965869;28;20359;-73
2021/08/18 07:41:07;;;;;;;;;;;;;;;;;;4952961;28;19914;-73
2021/08/18 07:43:32;;;;;;;;;;;;;;;;;;4968263;28;19914;-74
2021/08/18 07:45:57;;;;;;;;;;;;;;;;;;4948924;28;19918;-76
2021/08/18 07:48:22;;;;;;;;;;;;;;;;;;4966267;28;19914;-72
2021/08/18 07:50:48;;;;;;;;;;;;;;;;;;4953911;28;19918;-72
2021/08/18 07:53:13;;;;;;;;;;;;;;;;;;4971374;28;19914;-76
2021/08/18 07:55:38;;;;;;;;;;;;;;;;;;4966058;28;19918;-74
2021/08/18 07:58:03;;;;;;;;;;;;;;;;;;4969833;28;19914;-75
2021/08/18 08:00:30;;;;;;;;;;;;;;;;;;4952975;28;19929;-71
2021/08/18 08:02:56;;;;;;;;;;;;;;;;;;4969632;28;19937;-75
2021/08/18 08:05:21;;;;;;;;;;;;;;;;;;4952120;28;20346;-72
2021/08/18 08:07:46;;;;;;;;;;;;;;;;;;4969641;28;20260;-74
2021/08/18 08:10:11;;;;;;;;;;;;;;;;;;4973032;28;20015;-74
2021/08/18 08:12:37;;;;;;;;;;;;;;;;;;4955178;28;19941;-75
2021/08/18 08:15:02;;;;;;;;;;;;;;;;;;4954034;28;19984;-77
2021/08/18 08:17:27;;;;;;;;;;;;;;;;;;4954621;28;19959;-74
2021/08/18 08:19:52;;;;;;;;;;;;;;;;;;4972485;28;19964;-73
2021/08/18 08:22:18;;;;;;;;;;;;;;;;;;4971590;28;19965;-76
2021/08/18 08:24:43;;;;;;;;;;;;;;;;;;4971811;28;20005;-73
2021/08/18 08:27:08;;;;;;;;;;;;;;;;;;4949772;28;19969;-73
2021/08/18 08:29:33;;;;;;;;;;;;;;;;;;4970067;28;20334;-73
2021/08/18 08:31:59;;;;;;;;;;;;;;;;;;4968465;28;19910;-71
2021/08/18 08:34:24;;;;;;;;;;;;;;;;;;4954282;28;19914;-76
2021/08/18 08:36:49;;;;;;;;;;;;;;;;;;4968959;28;19917;-71
2021/08/18 08:39:14;;;;;;;;;;;;;;;;;;4970269;28;19936;-72
2021/08/18 08:41:41;;;;;;;;;;;;;;;;;;4971815;28;19985;-73
2021/08/18 08:44:06;;;;;;;;;;;;;;;;;;4967603;28;19921;-73
2021/08/18 08:46:31;;;;;;;;;;;;;;;;;;4969364;28;19922;-72
2021/08/18 08:48:56;;;;;;;;;;;;;;;;;;4951029;28;19953;-73
2021/08/18 08:51:22;;;;;;;;;;;;;;;;;;4969649;28;19917;-71
2021/08/18 08:53:47;;;;;;;;;;;;;;;;;;4970810;28;20020;-72
2021/08/18 08:56:12;;;;;;;;;;;;;;;;;;4972279;28;20367;-73
2021/08/18 08:58:37;;;;;;;;;;;;;;;;;;4954078;28;20052;-73
2021/08/18 09:01:02;;;;;;;;;;;;;;;;;;4954048;28;19914;-73
2021/08/18 09:03:28;;;;;;;;;;;;;;;;;;4973466;28;19937;-73
2021/08/18 09:05:53;;;;;;;;;;;;;;;;;;4969690;28;20290;-72
2021/08/18 09:08:18;;;;;;;;;;;;;;;;;;4968301;28;20272;-73
2021/08/18 09:10:43;;;;;;;;;;;;;;;;;;4969149;28;19914;-71
2021/08/18 09:13:09;;;;;;;;;;;;;;;;;;4949862;28;19918;-73
2021/08/18 09:15:34;;;;;;;;;;;;;;;;;;4954478;28;19924;-72
2021/08/18 09:17:59;;;;;;;;;;;;;;;;;;4964812;28;19921;-72
2021/08/18 09:20:24;;;;;;;;;;;;;;;;;;4967148;28;20074;-72
2021/08/18 09:22:49;;;;;;;;;;;;;;;;;;4969831;28;19921;-72
2021/08/18 09:25:15;;;;;;;;;;;;;;;;;;4950356;28;19933;-73
2021/08/18 09:27:40;;;;;;;;;;;;;;;;;;4973025;28;19918;-73
2021/08/18 09:30:05;;;;;;;;;;;;;;;;;;4941594;28;19968;-72
2021/08/18 09:32:32;;;;;;;;;;;;;;;;;;4955027;28;20166;-74
2021/08/18 09:34:57;;;;;;;;;;;;;;;;;;4971679;28;20342;-72
2021/08/18 09:37:23;;;;;;;;;;;;;;;;;;4972047;28;20470;-72
2021/08/18 09:39:48;;;;;;;;;;;;;;;;;;4972241;28;20260;-73
2021/08/18 09:42:13;;;;;;;;;;;;;;;;;;4964743;28;19914;-73
2021/08/18 09:44:38;;;;;;;;;;;;;;;;;;4971326;28;19914;-72
2021/08/18 09:47:04;;;;;;;;;;;;;;;;;;4941125;28;19929;-74
2021/08/18 09:49:29;;;;;;;;;;;;;;;;;;4968148;28;19914;-74
2021/08/18 09:51:55;;;;;;;;;;;;;;;;;;4971020;28;19913;-73
2021/08/18 09:54:20;;;;;;;;;;;;;;;;;;4975436;28;20422;-73
2021/08/18 09:56:47;;;;;;;;;;;;;;;;;;4937579;28;20354;-70
2021/08/18 09:59:14;;;;;;;;;;;;;;;;;;4952622;28;19944;-73
2021/08/18 10:01:39;;;;;;;;;;;;;;;;;;4970257;28;20389;-72
2021/08/18 10:04:05;;;;;;;;;;;;;;;;;;4954185;28;19976;-74
2021/08/18 10:06:30;;;;;;;;;;;;;;;;;;4972244;28;19960;-74
2021/08/18 10:08:55;;;;;;;;;;;;;;;;;;4970917;28;19920;-71
2021/08/18 10:11:20;;;;;;;;;;;;;;;;;;4941060;28;20029;-73
2021/08/18 10:13:48;;;;;;;;;;;;;;;;;;4956342;28;19914;-73
2021/08/18 10:16:16;;;;;;;;;;;;;;;;;;4970958;28;20410;-73
2021/08/18 10:18:41;;;;;;;;;;;;;;;;;;4952173;28;19918;-74
2021/08/18 10:21:06;;;;;;;;;;;;;;;;;;4956198;28;20393;-75
2021/08/18 10:23:31;;;;;;;;;;;;;;;;;;4955243;28;19914;-76
2021/08/18 10:25:56;;;;;;;;;;;;;;;;;;4952408;28;19945;-78
2021/08/18 10:28:22;;;;;;;;;;;;;;;;;;4972230;28;19914;-76
2021/08/18 10:30:47;;;;;;;;;;;;;;;;;;4951288;28;20429;-73
2021/08/18 10:33:12;;;;;;;;;;;;;;;;;;4970590;28;19968;-73
2021/08/18 10:35:37;;;;;;;;;;;;;;;;;;4969686;28;20012;-73
2021/08/18 10:38:03;;;;;;;;;;;;;;;;;;4954452;28;19949;-74
2021/08/18 10:40:28;;;;;;;;;;;;;;;;;;4942211;28;20731;-73
2021/08/18 10:42:53;;;;;;;;;;;;;;;;;;4953504;28;20403;-74
2021/08/18 10:45:20;;;;;;;;;;;;;;;;;;4969914;28;20375;-74
2021/08/18 10:47:45;;;;;;;;;;;;;;;;;;4971581;28;19926;-75
2021/08/18 10:50:10;;;;;;;;;;;;;;;;;;4951807;28;19914;-74
2021/08/18 10:52:35;;;;;;;;;;;;;;;;;;4968391;28;19914;-72
2021/08/18 10:55:00;;;;;;;;;;;;;;;;;;4971463;28;19956;-74
2021/08/18 10:57:26;;;;;;;;;;;;;;;;;;4967291;28;19910;-74
2021/08/18 10:59:53;;;;;;;;;;;;;;;;;;4966817;28;19914;-69
2021/08/18 11:02:21;;;;;;;;;;;;;;;;;;4957498;28;19918;-71
2021/08/18 11:04:46;;;;;;;;;;;;;;;;;;4969510;28;19919;-70
2021/08/18 11:07:11;;;;;;;;;;;;;;;;;;4971076;28;19942;-70
2021/08/18 11:09:36;;;;;;;;;;;;;;;;;;4967873;28;19918;-71
2021/08/18 11:12:02;;;;;;;;;;;;;;;;;;4952689;28;19914;-71
2021/08/18 11:14:27;;;;;;;;;;;;;;;;;;4969060;28;19914;-70
2021/08/18 11:16:52;;;;;;;;;;;;;;;;;;4953755;28;19925;-72
2021/08/18 11:19:17;;;;;;;;;;;;;;;;;;4963808;28;19976;-72
2021/08/18 11:21:43;;;;;;;;;;;;;;;;;;4966563;28;19914;-73
2021/08/18 11:24:09;;;;;;;;;;;;;;;;;;4948876;28;20009;-70
2021/08/18 11:26:34;;;;;;;;;;;;;;;;;;4964945;28;19926;-71
2021/08/18 11:28:59;;;;;;;;;;;;;;;;;;4969675;28;19965;-72
2021/08/18 11:31:24;;;;;;;;;;;;;;;;;;4967954;28;20275;-71
2021/08/18 11:33:50;;;;;;;;;;;;;;;;;;4965246;28;19914;-70
2021/08/18 11:36:15;;;;;;;;;;;;;;;;;;4970984;28;19924;-71
2021/08/18 11:38:40;;;;;;;;;;;;;;;;;;4964499;28;19988;-72
2021/08/18 11:41:05;;;;;;;;;;;;;;;;;;4967367;28;20303;-70
2021/08/18 11:43:33;;;;;;;;;;;;;;;;;;4966181;28;20220;-70
2021/08/18 11:45:58;;;;;;;;;;;;;;;;;;4942707;28;19929;-70
2021/08/18 11:48:24;;;;;;;;;;;;;;;;;;4969978;28;19966;-70
2021/08/18 11:50:49;;;;;;;;;;;;;;;;;;4969026;28;19917;-72
2021/08/18 11:53:15;;;;;;;;;;;;;;;;;;4946188;28;20370;-70
2021/08/18 11:55:40;;;;;;;;;;;;;;;;;;4964231;28;19917;-71
2021/08/18 11:58:06;;;;;;;;;;;;;;;;;;4967375;28;20364;-72
2021/08/18 12:00:32;;;;;;;;;;;;;;;;;;4968227;28;19914;-71
2021/08/18 12:02:59;;;;;;;;;;;;;;;;;;4966194;28;19914;-70
2021/08/18 12:05:25;;;;;;;;;;;;;;;;;;4957847;28;19914;-71
2021/08/18 12:07:50;;;;;;;;;;;;;;;;;;4970619;28;19922;-71
2021/08/18 12:10:15;;;;;;;;;;;;;;;;;;4969553;28;20395;-71
2021/08/18 12:12:40;;;;;;;;;;;;;;;;;;4968780;28;20334;-69
2021/08/18 12:15:06;;;;;;;;;;;;;;;;;;4968266;28;19914;-70
2021/08/18 12:17:31;;;;;;;;;;;;;;;;;;4968467;28;19921;-71
2021/08/18 12:19:59;;;;;;;;;;;;;;;;;;4969657;28;20279;-70
2021/08/18 12:22:24;;;;;;;;;;;;;;;;;;4967438;28;19918;-70
2021/08/18 12:24:49;;;;;;;;;;;;;;;;;;4972859;28;20105;-71
2021/08/18 12:27:14;;;;;;;;;;;;;;;;;;4968681;28;19964;-70
2021/08/18 12:29:40;;;;;;;;;;;;;;;;;;4969696;28;20005;-71
2021/08/18 12:32:05;;;;;;;;;;;;;;;;;;4951741;28;19914;-71
2021/08/18 12:34:30;;;;;;;;;;;;;;;;;;4969993;28;19914;-72
2021/08/18 12:36:56;;;;;;;;;;;;;;;;;;4968384;28;19921;-72
2021/08/18 12:39:21;;;;;;;;;;;;;;;;;;4954922;28;19921;-70
2021/08/18 12:41:46;;;;;;;;;;;;;;;;;;4971386;28;19921;-71
2021/08/18 12:44:14;;;;;;;;;;;;;;;;;;4967335;28;19924;-68
2021/08/18 12:46:40;;;;;;;;;;;;;;;;;;4955993;28;19929;-71
2021/08/18 12:49:05;;;;;;;;;;;;;;;;;;4949857;28;19914;-71
2021/08/18 12:51:30;;;;;;;;;;;;;;;;;;4968639;28;19921;-70
2021/08/18 12:53:55;;;;;;;;;;;;;;;;;;4969268;28;19914;-70
2021/08/18 12:56:20;;;;;;;;;;;;;;;;;;4952408;28;19920;-69
2021/08/18 12:58:46;;;;;;;;;;;;;;;;;;4968787;28;20390;-71
2021/08/18 13:01:11;;;;;;;;;;;;;;;;;;4968998;28;20287;-70
2021/08/18 13:03:36;;;;;;;;;;;;;;;;;;4967507;28;19989;-70
2021/08/18 13:06:01;;;;;;;;;;;;;;;;;;4968611;28;19914;-70
2021/08/18 13:08:27;;;;;;;;;;;;;;;;;;4966035;28;19922;-70
2021/08/18 13:10:52;;;;;;;;;;;;;;;;;;4966826;28;19918;-70
2021/08/18 13:13:17;;;;;;;;;;;;;;;;;;4968689;28;19913;-70
2021/08/18 13:15:42;;;;;;;;;;;;;;;;;;4968656;28;19920;-74
2021/08/18 13:18:07;;;;;;;;;;;;;;;;;;4969760;28;20020;-70
2021/08/18 13:20:33;;;;;;;;;;;;;;;;;;4969393;28;19918;-71
2021/08/18 13:22:59;;;;;;;;;;;;;;;;;;4968369;28;19934;-71
2021/08/18 13:25:24;;;;;;;;;;;;;;;;;;4967040;28;20435;-72
2021/08/18 13:27:50;;;;;;;;;;;;;;;;;;4950781;28;20420;-72
2021/08/18 13:30:15;;;;;;;;;;;;;;;;;;4950657;28;19928;-71
2021/08/18 13:32:41;;;;;;;;;;;;;;;;;;4968124;28;19917;-71
2021/08/18 13:35:06;;;;;;;;;;;;;;;;;;4970146;28;19914;-72
2021/08/18 13:37:32;;;;;;;;;;;;;;;;;;4967704;28;19921;-71
2021/08/18 13:39:57;;;;;;;;;;;;;;;;;;4952862;28;20447;-71
2021/08/18 13:42:22;;;;;;;;;;;;;;;;;;4967721;28;19933;-70
2021/08/18 13:44:47;;;;;;;;;;;;;;;;;;4970459;28;20411;-70
2021/08/18 13:47:13;;;;;;;;;;;;;;;;;;4971075;28;20368;-70
2021/08/18 13:49:38;;;;;;;;;;;;;;;;;;4942683;28;19968;-71
2021/08/18 13:52:03;;;;;;;;;;;;;;;;;;4953294;28;19910;-72
2021/08/18 13:54:28;;;;;;;;;;;;;;;;;;4936812;28;19925;-71
2021/08/18 13:56:54;;;;;;;;;;;;;;;;;;4952309;28;19913;-72
2021/08/18 13:59:22;;;;;;;;;;;;;;;;;;4950302;28;19918;-72
2021/08/18 14:01:52;;;;;;;;;;;;;;;;;;4965588;28;19919;-71
2021/08/18 14:04:17;;;;;;;;;;;;;;;;;;4968114;28;19910;-70
2021/08/18 14:06:42;;;;;;;;;;;;;;;;;;4966999;28;19964;-72
2021/08/18 14:09:07;;;;;;;;;;;;;;;;;;4965484;28;20001;-73
2021/08/18 14:11:33;;;;;;;;;;;;;;;;;;4931675;28;19937;-71
2021/08/18 14:13:58;;;;;;;;;;;;;;;;;;4937142;28;19913;-71
2021/08/18 14:16:23;;;;;;;;;;;;;;;;;;4971517;28;20326;-70
2021/08/18 14:18:48;;;;;;;;;;;;;;;;;;4946827;28;20705;-69
2021/08/18 14:21:14;;;;;;;;;;;;;;;;;;4966704;28;19981;-73
2021/08/18 14:23:39;;;;;;;;;;;;;;;;;;4971410;28;20378;-75
2021/08/18 14:26:07;;;;;;;;;;;;;;;;;;4969205;28;19918;-69
2021/08/18 14:28:32;;;;;;;;;;;;;;;;;;4971806;28;20436;-69
2021/08/18 14:30:57;;;;;;;;;;;;;;;;;;4960725;28;19960;-70
2021/08/18 14:33:22;;;;;;;;;;;;;;;;;;4943122;28;20291;-68
2021/08/18 14:35:48;;;;;;;;;;;;;;;;;;4972434;28;19914;-69
2021/08/18 14:38:13;;;;;;;;;;;;;;;;;;4948363;28;19945;-69
2021/08/18 14:40:38;;;;;;;;;;;;;;;;;;4966435;28;20375;-70
2021/08/18 14:43:03;;;;;;;;;;;;;;;;;;4966413;28;19919;-69
2021/08/18 14:45:29;;;;;;;;;;;;;;;;;;4946989;28;19918;-70
2021/08/18 14:47:58;;;;;;;;;;;;;;;;;;4949499;28;19992;-68
2021/08/18 14:50:25;;;;;;;;;;;;;;;;;;4961977;28;19931;-69
2021/08/18 14:52:51;;;;;;;;;;;;;;;;;;4965986;28;19918;-69
2021/08/18 14:55:16;;;;;;;;;;;;;;;;;;4970968;28;19937;-70
2021/08/18 14:57:42;;;;;;;;;;;;;;;;;;4959560;28;19910;-70
2021/08/18 15:00:07;;;;;;;;;;;;;;;;;;4941153;28;19918;-69
2021/08/18 15:02:32;;;;;;;;;;;;;;;;;;4968479;28;19921;-70
2021/08/18 15:04:57;;;;;;;;;;;;;;;;;;4968649;28;19914;-70
2021/08/18 15:07:22;;;;;;;;;;;;;;;;;;4972832;28;19918;-68
2021/08/18 15:09:48;;;;;;;;;;;;;;;;;;4964319;28;19918;-69
2021/08/18 15:12:13;;;;;;;;;;;;;;;;;;4954143;28;19958;-70
2021/08/18 15:14:38;;;;;;;;;;;;;;;;;;4967120;28;19921;-72
2021/08/18 15:17:03;;;;;;;;;;;;;;;;;;4967378;28;19925;-72
2021/08/18 15:19:29;;;;;;;;;;;;;;;;;;4958960;28;19945;-72
2021/08/18 15:21:54;;;;;;;;;;;;;;;;;;4950420;28;19917;-71
2021/08/18 15:24:19;;;;;;;;;;;;;;;;;;4960515;28;20387;-70
2021/08/18 15:26:45;;;;;;;;;;;;;;;;;;4947708;28;19917;-71
2021/08/18 15:29:10;;;;;;;;;;;;;;;;;;4948036;28;19918;-72
2021/08/18 15:31:35;;;;;;;;;;;;;;;;;;4969425;28;19937;-73
2021/08/18 15:34:00;;;;;;;;;;;;;;;;;;4966603;28;20375;-72
2021/08/18 15:36:26;;;;;;;;;;;;;;;;;;4969614;28;19914;-71
2021/08/18 15:38:51;;;;;;;;;;;;;;;;;;4962316;28;20339;-70
2021/08/18 15:41:16;;;;;;;;;;;;;;;;;;4965127;28;20240;-72
2021/08/18 15:43:44;;;;;;;;;;;;;;;;;;4970300;28;20557;-72
2021/08/18 15:46:09;;;;;;;;;;;;;;;;;;4968699;28;19918;-71
2021/08/18 15:48:34;;;;;;;;;;;;;;;;;;4970150;28;19922;-72
2021/08/18 15:51:00;;;;;;;;;;;;;;;;;;4963413;28;19913;-71
2021/08/18 15:53:25;;;;;;;;;;;;;;;;;;4960597;28;20311;-72
2021/08/18 15:55:50;;;;;;;;;;;;;;;;;;4968813;28;20003;-73
2021/08/18 15:58:15;;;;;;;;;;;;;;;;;;4963945;28;20041;-73
2021/08/18 16:00:43;;;;;;;;;;;;;;;;;;4970974;28;19909;-74
2021/08/18 16:03:08;;;;;;;;;;;;;;;;;;4965102;28;19921;-73
2021/08/18 16:05:33;;;;;;;;;;;;;;;;;;4950701;28;19918;-73
2021/08/18 16:07:59;;;;;;;;;;;;;;;;;;4971201;28;19929;-72
2021/08/18 16:10:24;;;;;;;;;;;;;;;;;;4965354;28;19945;-73
2021/08/18 16:12:49;;;;;;;;;;;;;;;;;;4970527;28;19917;-74
2021/08/18 16:15:14;;;;;;;;;;;;;;;;;;4943930;28;20300;-74
2021/08/18 16:17:39;;;;;;;;;;;;;;;;;;4966682;28;19917;-75
2021/08/18 16:20:05;;;;;;;;;;;;;;;;;;4969629;28;19918;-73
2021/08/18 16:22:32;;;;;;;;;;;;;;;;;;4963912;28;19914;-74
2021/08/18 16:24:58;;;;;;;;;;;;;;;;;;4966207;28;19914;-74
2021/08/18 16:27:23;;;;;;;;;;;;;;;;;;4966739;28;19957;-73
2021/08/18 16:29:49;;;;;;;;;;;;;;;;;;4967329;28;20056;-72
2021/08/18 16:32:14;;;;;;;;;;;;;;;;;;4973163;28;20668;-72